D/T METAR WX W/DIR W/SPE G/SPE TEMP DEWP
9/12/19 13:21 EGUB 091321Z 31016G26KT 9999 SCT042 09/01 Q1015 NOSIG RMK BLU BLU NW (310°) 18.4mph 29.9mph 9°C 1°C
9/12/19 12:50 EGUB 091250Z 31014G24KT 9999 FEW040 09/02 Q1015 NOSIG RMK BLU BLU NW (310°) 16.1mph 27.6mph 9°C 2°C
9/12/19 11:50 EGUB 091150Z 31015G25KT 9999 FEW034 09/03 Q1013 NOSIG RMK BLU BLU NW (310°) 17.3mph 28.8mph 9°C 3°C
9/12/19 11:20 EGUB 091120Z 32016KT 9999 FEW034 09/02 Q1012 NOSIG RMK BLU BLU NW (320°) 18.4mph 9°C 2°C
9/12/19 10:50 EGUB 091050Z 31014G24KT 9999 FEW035 09/03 Q1011 NOSIG RMK BLU BLU NW (310°) 16.1mph 27.6mph 9°C 3°C
9/12/19 10:20 EGUB 091020Z 31016KT 9999 FEW032 09/03 Q1010 NOSIG RMK BLU BLU NW (310°) 18.4mph 9°C 3°C
9/12/19 09:50 EGUB 090950Z 32016KT 9999 FEW032 08/03 Q1009 NOSIG RMK BLU BLU NW (320°) 18.4mph 8°C 3°C
9/12/19 09:20 EGUB 090920Z 31015KT 9999 FEW032 08/03 Q1008 NOSIG RMK BLU BLU NW (310°) 17.3mph 8°C 3°C
9/12/19 08:20 EGUB 090820Z 32015KT 9999 FEW031 08/03 Q1005 NOSIG RMK BLU BLU NW (320°) 17.3mph 8°C 3°C
9/12/19 06:50 EGUB 090650Z 32015G25KT 9999 SCT031 SCT038 09/04 Q1001 RMK BLU NW (320°) 17.3mph 28.8mph 9°C 4°C
9/12/19 05:50 EGUB 090550Z AUTO 31015G26KT 9999 // FEW024/// BKN039/// 08/04 Q0998 NW (310°) 17.3mph 29.9mph 8°C 4°C
9/12/19 04:50 EGUB 090450Z AUTO 30014KT 9999 // SCT019/// SCT033/// 08/06 Q0995 WNW (300°) 16.1mph 8°C 6°C
9/12/19 03:50 EGUB 090350Z AUTO 26014KT 9999 // SCT020/// BKN030/// 08/05 Q0992 W (260°) 16.1mph 8°C 5°C
9/12/19 02:50 EGUB 090250Z AUTO 25013KT 9999 // SCT033/// BKN040/// 08/04 Q0992 WSW (250°) 15.0mph 8°C 4°C
9/12/19 01:50 EGUB 090150Z AUTO 24010KT 9999 // SCT035/// 07/04 Q0992 WSW (240°) 11.5mph 7°C 4°C
9/12/19 00:50 EGUB 090050Z AUTO 27015G25KT 9999 // FEW029/// 07/04 Q0991 W (270°) 17.3mph 28.8mph 7°C 4°C
8/12/19 23:50 EGUB 082350Z AUTO 21013KT 9999 // BKN017/// 07/05 Q0990 SSW (210°) 15.0mph 7°C 5°C
8/12/19 22:50 EGUB 082250Z AUTO 18012KT 9999 // FEW023/// BKN049/// 06/04 Q0991 S (180°) 13.8mph 6°C 4°C
8/12/19 21:50 EGUB 082150Z AUTO 21014KT 9999 // FEW038/// 06/03 Q0993 SSW (210°) 16.1mph 6°C 3°C
8/12/19 20:50 EGUB 082050Z AUTO 21014KT 9999 // FEW022/// BKN100/// 06/03 Q0994 SSW (210°) 16.1mph 6°C 3°C
8/12/19 19:50 EGUB 081950Z AUTO 21015KT 9999 // NCD 06/03 Q0995 SSW (210°) 17.3mph 6°C 3°C
8/12/19 18:50 EGUB 081850Z AUTO 22016KT 9999 // FEW025/// BKN033/// 06/03 Q0996 SW (220°) 18.4mph 6°C 3°C
8/12/19 17:50 EGUB 081750Z AUTO 21010KT 9999 // FEW044/// 06/03 Q0997 SSW (210°) 11.5mph 6°C 3°C
8/12/19 16:50 EGUB 081650Z AUTO 24021KT 9999 // SCT020/// 07/04 Q0998 WSW (240°) 24.2mph 7°C 4°C
8/12/19 15:50 EGUB 081550Z AUTO 23014KT 9999 // SCT160/// 07/03 Q0998 SW (230°) 16.1mph 7°C 3°C
8/12/19 14:50 EGUB 081450Z AUTO 23016G27KT 9999 // BKN120/// 08/03 Q0998 SW (230°) 18.4mph 31.1mph 8°C 3°C
8/12/19 13:50 EGUB 081350Z AUTO 23015KT 9999 // SCT036/// BKN140/// 09/04 Q0999 SW (230°) 17.3mph 9°C 4°C
8/12/19 12:50 EGUB 081250Z AUTO 25017G33KT 9999 // FEW031/// SCT046/// 07/05 Q1000 WSW (250°) 19.6mph 38.0mph 7°C 5°C
8/12/19 11:50 EGUB 081150Z AUTO 24019G29KT 9999 // SCT031/// SCT038/// 10/04 Q1000 WSW (240°) 21.9mph 33.4mph 10°C 4°C
8/12/19 10:50 EGUB 081050Z AUTO 23015KT 9999 // BKN030/// 10/05 Q1001 SW (230°) 17.3mph 10°C 5°C
8/12/19 09:50 EGUB 080950Z AUTO 23013KT 9999 // BKN029/// SCT037/// 10/05 Q1001 SW (230°) 15.0mph 10°C 5°C
8/12/19 08:50 EGUB 080850Z AUTO 25013KT 9999 // BKN028/// 09/05 Q1001 WSW (250°) 15.0mph 9°C 5°C
8/12/19 07:50 EGUB 080750Z AUTO 24016KT 9999 // BKN031/// 09/06 Q1000 WSW (240°) 18.4mph 9°C 6°C
8/12/19 06:50 EGUB 080650Z AUTO 24015KT 9999 // BKN029/// 10/06 Q1000 WSW (240°) 17.3mph 10°C 6°C
8/12/19 05:50 EGUB 080550Z AUTO 23015KT 9999 // FEW024/// SCT033/// 10/07 Q0999 SW (230°) 17.3mph 10°C 7°C
8/12/19 04:50 EGUB 080450Z AUTO 24020G34KT 9999 // SCT023/// 12/08 Q0999 WSW (240°) 23.0mph 39.1mph 12°C 8°C
8/12/19 03:50 EGUB 080350Z AUTO 21016KT 9999 // OVC011/// 12/11 Q0998 SSW (210°) 18.4mph 12°C 11°C
8/12/19 02:50 EGUB 080250Z AUTO 20019KT 9999 // BKN012/// 11/10 Q0999 SSW (200°) 21.9mph 11°C 10°C
8/12/19 01:50 EGUB 080150Z AUTO 19018KT 9000 // SCT012/// BKN036/// 10/09 Q1001 S (190°) 20.7mph 10°C 9°C
8/12/19 00:50 EGUB 080050Z AUTO 19019G30KT 9000 // BKN014/// BKN050/// 11/09 Q1002 S (190°) 21.9mph 34.5mph 11°C 9°C
7/12/19 23:50 EGUB 072350Z AUTO 19020KT 9999 // BKN011/// BKN080/// 11/08 Q1003 S (190°) 23.0mph 11°C 8°C
7/12/19 22:50 EGUB 072250Z AUTO 20019KT 9999 // OVC010/// 11/09 Q1005 SSW (200°) 21.9mph 11°C 9°C
7/12/19 21:50 EGUB 072150Z AUTO 20018G28KT 9999 // OVC010/// 10/08 Q1007 SSW (200°) 20.7mph 32.2mph 10°C 8°C
7/12/19 20:50 EGUB 072050Z AUTO 21012KT 9999 // BKN012/// 10/08 Q1009 SSW (210°) 13.8mph 10°C 8°C
7/12/19 19:50 EGUB 071950Z AUTO 21013KT 9999 // BKN014/// 10/07 Q1009 SSW (210°) 15.0mph 10°C 7°C
7/12/19 18:50 EGUB 071850Z AUTO 22011KT 9999 // OVC018/// 09/06 Q1011 SW (220°) 12.7mph 9°C 6°C
7/12/19 17:50 EGUB 071750Z AUTO 22009KT 9999 // OVC020/// 09/06 Q1012 SW (220°) 10.4mph 9°C 6°C
7/12/19 16:50 EGUB 071650Z AUTO 22012KT 9999 // OVC021/// 09/06 Q1012 SW (220°) 13.8mph 9°C 6°C